sensor_id;sensor_type;location;lat;lon;timestamp;temperature;humidity
61255;DHT22;47128;47.530;8.584;2023-04-26T00:00:34;7.00;99.90
61255;DHT22;47128;47.530;8.584;2023-04-26T00:03:00;7.00;99.90
61255;DHT22;47128;47.530;8.584;2023-04-26T00:05:26;7.00;99.90
61255;DHT22;47128;47.530;8.584;2023-04-26T00:07:52;7.00;99.90
61255;DHT22;47128;47.530;8.584;2023-04-26T00:10:18;7.10;99.90
61255;DHT22;47128;47.530;8.584;2023-04-26T00:12:44;7.10;99.90
61255;DHT22;47128;47.530;8.584;2023-04-26T00:15:09;7.00;99.90
61255;DHT22;47128;47.530;8.584;2023-04-26T00:17:35;7.00;99.90
61255;DHT22;47128;47.530;8.584;2023-04-26T00:20:01;7.00;99.90
61255;DHT22;47128;47.530;8.584;2023-04-26T00:22:29;7.00;99.90
61255;DHT22;47128;47.530;8.584;2023-04-26T00:24:54;7.00;99.90
61255;DHT22;47128;47.530;8.584;2023-04-26T00:27:20;7.00;99.90
61255;DHT22;47128;47.530;8.584;2023-04-26T00:29:46;7.00;99.90
61255;DHT22;47128;47.530;8.584;2023-04-26T00:32:11;6.90;99.90
61255;DHT22;47128;47.530;8.584;2023-04-26T00:34:37;6.90;99.90
61255;DHT22;47128;47.530;8.584;2023-04-26T00:37:03;7.00;99.90
61255;DHT22;47128;47.530;8.584;2023-04-26T00:39:29;7.00;99.90
61255;DHT22;47128;47.530;8.584;2023-04-26T00:41:54;7.00;99.90
61255;DHT22;47128;47.530;8.584;2023-04-26T00:44:20;7.10;99.90
61255;DHT22;47128;47.530;8.584;2023-04-26T00:46:47;7.00;99.90
61255;DHT22;47128;47.530;8.584;2023-04-26T00:49:15;7.00;99.90
61255;DHT22;47128;47.530;8.584;2023-04-26T00:51:44;7.00;99.90
61255;DHT22;47128;47.530;8.584;2023-04-26T00:54:10;7.00;99.90
61255;DHT22;47128;47.530;8.584;2023-04-26T00:56:36;7.00;99.90
61255;DHT22;47128;47.530;8.584;2023-04-26T00:59:02;7.00;99.90
61255;DHT22;47128;47.530;8.584;2023-04-26T01:01:28;7.00;99.90
61255;DHT22;47128;47.530;8.584;2023-04-26T01:03:55;7.00;99.90
61255;DHT22;47128;47.530;8.584;2023-04-26T01:06:21;7.00;99.90
61255;DHT22;47128;47.530;8.584;2023-04-26T01:08:49;7.00;99.90
61255;DHT22;47128;47.530;8.584;2023-04-26T01:11:15;7.00;99.90
61255;DHT22;47128;47.530;8.584;2023-04-26T01:13:41;7.00;99.90
61255;DHT22;47128;47.530;8.584;2023-04-26T01:16:07;7.00;99.90
61255;DHT22;47128;47.530;8.584;2023-04-26T01:18:33;7.00;99.90
61255;DHT22;47128;47.530;8.584;2023-04-26T01:20:59;7.00;99.90
61255;DHT22;47128;47.530;8.584;2023-04-26T01:23:24;7.00;99.90
61255;DHT22;47128;47.530;8.584;2023-04-26T01:25:50;7.00;99.90
61255;DHT22;47128;47.530;8.584;2023-04-26T01:28:16;7.00;99.90
61255;DHT22;47128;47.530;8.584;2023-04-26T01:30:41;7.00;99.90
61255;DHT22;47128;47.530;8.584;2023-04-26T01:33:08;7.00;99.90
61255;DHT22;47128;47.530;8.584;2023-04-26T01:35:33;7.00;99.90
61255;DHT22;47128;47.530;8.584;2023-04-26T01:37:59;7.00;99.90
61255;DHT22;47128;47.530;8.584;2023-04-26T01:40:24;7.00;99.90
61255;DHT22;47128;47.530;8.584;2023-04-26T01:42:50;7.00;99.90
61255;DHT22;47128;47.530;8.584;2023-04-26T01:45:16;6.90;99.90
61255;DHT22;47128;47.530;8.584;2023-04-26T01:47:42;6.80;99.90
61255;DHT22;47128;47.530;8.584;2023-04-26T01:50:08;6.80;99.90
61255;DHT22;47128;47.530;8.584;2023-04-26T01:52:34;6.80;99.90
61255;DHT22;47128;47.530;8.584;2023-04-26T01:55:00;6.70;99.90
61255;DHT22;47128;47.530;8.584;2023-04-26T01:57:26;6.70;99.90
61255;DHT22;47128;47.530;8.584;2023-04-26T01:59:51;6.70;99.90
61255;DHT22;47128;47.530;8.584;2023-04-26T02:02:18;6.70;99.90
61255;DHT22;47128;47.530;8.584;2023-04-26T02:04:44;6.70;99.90
61255;DHT22;47128;47.530;8.584;2023-04-26T02:07:10;6.70;99.90
61255;DHT22;47128;47.530;8.584;2023-04-26T02:09:35;6.70;99.90
61255;DHT22;47128;47.530;8.584;2023-04-26T02:12:02;6.70;99.90
61255;DHT22;47128;47.530;8.584;2023-04-26T02:14:27;6.60;99.90
61255;DHT22;47128;47.530;8.584;2023-04-26T02:16:53;6.60;99.90
61255;DHT22;47128;47.530;8.584;2023-04-26T02:19:18;6.60;99.90
61255;DHT22;47128;47.530;8.584;2023-04-26T02:21:51;6.60;99.90
61255;DHT22;47128;47.530;8.584;2023-04-26T02:24:17;6.50;99.90
61255;DHT22;47128;47.530;8.584;2023-04-26T02:26:42;6.60;99.90
61255;DHT22;47128;47.530;8.584;2023-04-26T02:29:08;6.60;99.90
61255;DHT22;47128;47.530;8.584;2023-04-26T02:31:34;6.60;99.90
61255;DHT22;47128;47.530;8.584;2023-04-26T02:34:00;6.70;99.90
61255;DHT22;47128;47.530;8.584;2023-04-26T02:36:26;6.60;99.90
61255;DHT22;47128;47.530;8.584;2023-04-26T02:38:51;6.60;99.90
61255;DHT22;47128;47.530;8.584;2023-04-26T02:41:17;6.60;99.90
61255;DHT22;47128;47.530;8.584;2023-04-26T02:43:42;6.50;99.90
61255;DHT22;47128;47.530;8.584;2023-04-26T02:46:08;6.50;99.90
61255;DHT22;47128;47.530;8.584;2023-04-26T02:48:33;6.50;99.90
61255;DHT22;47128;47.530;8.584;2023-04-26T02:50:59;6.50;99.90
61255;DHT22;47128;47.530;8.584;2023-04-26T02:53:25;6.60;99.90
61255;DHT22;47128;47.530;8.584;2023-04-26T02:55:50;6.60;99.90
61255;DHT22;47128;47.530;8.584;2023-04-26T02:58:16;6.60;99.90
61255;DHT22;47128;47.530;8.584;2023-04-26T03:00:45;6.70;99.90
61255;DHT22;47128;47.530;8.584;2023-04-26T03:03:14;6.60;99.90
61255;DHT22;47128;47.530;8.584;2023-04-26T03:05:40;6.50;99.90
61255;DHT22;47128;47.530;8.584;2023-04-26T03:08:06;6.50;99.90
61255;DHT22;47128;47.530;8.584;2023-04-26T03:10:32;6.50;99.90
61255;DHT22;47128;47.530;8.584;2023-04-26T03:12:58;6.40;99.90
61255;DHT22;47128;47.530;8.584;2023-04-26T03:15:23;6.30;99.90
61255;DHT22;47128;47.530;8.584;2023-04-26T03:17:49;6.30;99.90
61255;DHT22;47128;47.530;8.584;2023-04-26T03:20:14;6.30;99.90
61255;DHT22;47128;47.530;8.584;2023-04-26T03:22:40;6.30;99.90
61255;DHT22;47128;47.530;8.584;2023-04-26T03:25:06;6.30;99.90
61255;DHT22;47128;47.530;8.584;2023-04-26T03:27:35;6.20;99.90
61255;DHT22;47128;47.530;8.584;2023-04-26T03:30:00;6.20;99.90
61255;DHT22;47128;47.530;8.584;2023-04-26T03:32:26;6.20;99.90
61255;DHT22;47128;47.530;8.584;2023-04-26T03:34:51;6.20;99.90
61255;DHT22;47128;47.530;8.584;2023-04-26T03:37:17;6.30;99.90
61255;DHT22;47128;47.530;8.584;2023-04-26T03:39:42;6.40;99.90
61255;DHT22;47128;47.530;8.584;2023-04-26T03:42:08;6.40;99.90
61255;DHT22;47128;47.530;8.584;2023-04-26T03:44:33;6.30;99.90
61255;DHT22;47128;47.530;8.584;2023-04-26T03:46:59;6.30;99.90
61255;DHT22;47128;47.530;8.584;2023-04-26T03:49:25;6.20;99.90
61255;DHT22;47128;47.530;8.584;2023-04-26T03:51:50;6.20;99.90
61255;DHT22;47128;47.530;8.584;2023-04-26T03:54:16;6.20;99.90
61255;DHT22;47128;47.530;8.584;2023-04-26T03:56:41;6.30;99.90
61255;DHT22;47128;47.530;8.584;2023-04-26T03:59:07;6.30;99.90
61255;DHT22;47128;47.530;8.584;2023-04-26T04:01:36;6.30;99.90
61255;DHT22;47128;47.530;8.584;2023-04-26T04:04:01;6.30;99.90
61255;DHT22;47128;47.530;8.584;2023-04-26T04:06:27;6.20;99.90
61255;DHT22;47128;47.530;8.584;2023-04-26T04:08:52;6.30;99.90
61255;DHT22;47128;47.530;8.584;2023-04-26T04:11:21;6.30;99.90
61255;DHT22;47128;47.530;8.584;2023-04-26T04:13:47;6.40;99.90
61255;DHT22;47128;47.530;8.584;2023-04-26T04:16:13;6.40;99.90
61255;DHT22;47128;47.530;8.584;2023-04-26T04:18:38;6.40;99.90
61255;DHT22;47128;47.530;8.584;2023-04-26T04:21:04;6.50;99.90
61255;DHT22;47128;47.530;8.584;2023-04-26T04:23:30;6.50;99.90
61255;DHT22;47128;47.530;8.584;2023-04-26T04:25:56;6.50;99.90
61255;DHT22;47128;47.530;8.584;2023-04-26T04:28:22;6.50;99.90
61255;DHT22;47128;47.530;8.584;2023-04-26T04:30:48;6.50;99.90
61255;DHT22;47128;47.530;8.584;2023-04-26T04:33:13;6.50;99.90
61255;DHT22;47128;47.530;8.584;2023-04-26T04:35:42;6.40;99.90
61255;DHT22;47128;47.530;8.584;2023-04-26T04:38:09;6.30;99.90
61255;DHT22;47128;47.530;8.584;2023-04-26T04:40:34;6.30;99.90
61255;DHT22;47128;47.530;8.584;2023-04-26T04:43:00;6.30;99.90
61255;DHT22;47128;47.530;8.584;2023-04-26T04:45:26;6.30;99.90
61255;DHT22;47128;47.530;8.584;2023-04-26T04:47:52;6.30;99.90
61255;DHT22;47128;47.530;8.584;2023-04-26T04:50:21;6.30;99.90
61255;DHT22;47128;47.530;8.584;2023-04-26T04:52:47;6.20;99.90
61255;DHT22;47128;47.530;8.584;2023-04-26T04:55:13;6.20;99.90
61255;DHT22;47128;47.530;8.584;2023-04-26T04:57:39;6.20;99.90
61255;DHT22;47128;47.530;8.584;2023-04-26T05:00:04;6.20;99.90
61255;DHT22;47128;47.530;8.584;2023-04-26T05:02:35;6.20;99.90
61255;DHT22;47128;47.530;8.584;2023-04-26T05:05:01;6.20;99.90
61255;DHT22;47128;47.530;8.584;2023-04-26T05:07:28;6.10;99.90
61255;DHT22;47128;47.530;8.584;2023-04-26T05:09:54;6.00;99.90
61255;DHT22;47128;47.530;8.584;2023-04-26T05:12:20;6.00;99.90
61255;DHT22;47128;47.530;8.584;2023-04-26T05:14:47;6.10;99.90
61255;DHT22;47128;47.530;8.584;2023-04-26T05:17:12;6.10;99.90
61255;DHT22;47128;47.530;8.584;2023-04-26T05:19:38;6.10;99.90
61255;DHT22;47128;47.530;8.584;2023-04-26T05:22:03;6.20;99.90
61255;DHT22;47128;47.530;8.584;2023-04-26T05:27:32;6.20;99.90
61255;DHT22;47128;47.530;8.584;2023-04-26T05:29:59;6.30;99.90
61255;DHT22;47128;47.530;8.584;2023-04-26T05:35:28;6.30;99.90
61255;DHT22;47128;47.530;8.584;2023-04-26T05:37:54;6.30;99.90
61255;DHT22;47128;47.530;8.584;2023-04-26T05:40:19;6.20;99.90
61255;DHT22;47128;47.530;8.584;2023-04-26T05:45:54;6.30;99.90
61255;DHT22;47128;47.530;8.584;2023-04-26T05:48:21;6.30;99.90
61255;DHT22;47128;47.530;8.584;2023-04-26T05:50:47;6.30;99.90
61255;DHT22;47128;47.530;8.584;2023-04-26T05:53:12;6.30;99.90
61255;DHT22;47128;47.530;8.584;2023-04-26T05:55:39;6.40;99.90
61255;DHT22;47128;47.530;8.584;2023-04-26T05:58:05;6.50;99.90
61255;DHT22;47128;47.530;8.584;2023-04-26T06:00:32;6.50;99.90
61255;DHT22;47128;47.530;8.584;2023-04-26T06:02:57;6.50;99.90
61255;DHT22;47128;47.530;8.584;2023-04-26T06:08:26;6.50;99.90
61255;DHT22;47128;47.530;8.584;2023-04-26T06:10:52;6.60;99.90
61255;DHT22;47128;47.530;8.584;2023-04-26T06:13:19;6.60;99.90
61255;DHT22;47128;47.530;8.584;2023-04-26T06:21:36;6.80;99.90
61255;DHT22;47128;47.530;8.584;2023-04-26T06:24:02;7.00;99.90
61255;DHT22;47128;47.530;8.584;2023-04-26T06:38:40;7.40;99.90
61255;DHT22;47128;47.530;8.584;2023-04-26T06:47:12;7.20;99.90
61255;DHT22;47128;47.530;8.584;2023-04-26T06:49:38;7.30;99.90
61255;DHT22;47128;47.530;8.584;2023-04-26T06:52:04;7.30;99.90
61255;DHT22;47128;47.530;8.584;2023-04-26T06:54:31;7.40;99.90
61255;DHT22;47128;47.530;8.584;2023-04-26T06:56:57;7.40;99.90
61255;DHT22;47128;47.530;8.584;2023-04-26T06:59:22;7.40;99.90
61255;DHT22;47128;47.530;8.584;2023-04-26T07:01:48;7.50;99.90
61255;DHT22;47128;47.530;8.584;2023-04-26T07:04:14;7.40;99.90
61255;DHT22;47128;47.530;8.584;2023-04-26T07:06:43;7.30;99.90
61255;DHT22;47128;47.530;8.584;2023-04-26T07:09:11;7.30;99.90
61255;DHT22;47128;47.530;8.584;2023-04-26T07:14:41;7.40;99.90
61255;DHT22;47128;47.530;8.584;2023-04-26T07:17:08;7.40;99.90
61255;DHT22;47128;47.530;8.584;2023-04-26T07:19:48;7.50;99.90
61255;DHT22;47128;47.530;8.584;2023-04-26T07:22:14;7.70;99.90
61255;DHT22;47128;47.530;8.584;2023-04-26T07:24:40;7.80;99.90
61255;DHT22;47128;47.530;8.584;2023-04-26T07:27:05;7.80;99.90
61255;DHT22;47128;47.530;8.584;2023-04-26T07:29:31;7.90;99.90
61255;DHT22;47128;47.530;8.584;2023-04-26T07:31:56;7.90;99.90
61255;DHT22;47128;47.530;8.584;2023-04-26T07:34:39;7.90;99.90
61255;DHT22;47128;47.530;8.584;2023-04-26T07:40:09;8.00;99.90
61255;DHT22;47128;47.530;8.584;2023-04-26T07:42:35;8.10;99.90
61255;DHT22;47128;47.530;8.584;2023-04-26T07:48:04;8.00;99.90
61255;DHT22;47128;47.530;8.584;2023-04-26T07:53:33;8.20;99.90
61255;DHT22;47128;47.530;8.584;2023-04-26T07:55:59;8.30;99.90
61255;DHT22;47128;47.530;8.584;2023-04-26T08:04:31;9.00;99.90
61255;DHT22;47128;47.530;8.584;2023-04-26T08:07:00;9.20;99.90
61255;DHT22;47128;47.530;8.584;2023-04-26T08:09:27;9.20;99.90
61255;DHT22;47128;47.530;8.584;2023-04-26T08:11:52;9.40;99.90
61255;DHT22;47128;47.530;8.584;2023-04-26T08:14:18;9.70;99.90
61255;DHT22;47128;47.530;8.584;2023-04-26T08:16:43;10.20;99.90
61255;DHT22;47128;47.530;8.584;2023-04-26T08:19:10;10.90;99.90
61255;DHT22;47128;47.530;8.584;2023-04-26T08:21:35;11.20;99.90
61255;DHT22;47128;47.530;8.584;2023-04-26T08:24:01;11.30;99.90
61255;DHT22;47128;47.530;8.584;2023-04-26T08:26:26;11.70;99.90
61255;DHT22;47128;47.530;8.584;2023-04-26T08:28:52;12.30;99.90
61255;DHT22;47128;47.530;8.584;2023-04-26T08:31:17;12.60;99.90
61255;DHT22;47128;47.530;8.584;2023-04-26T08:33:43;12.60;99.90
61255;DHT22;47128;47.530;8.584;2023-04-26T08:36:09;12.20;99.90
61255;DHT22;47128;47.530;8.584;2023-04-26T08:38:34;11.90;99.90
61255;DHT22;47128;47.530;8.584;2023-04-26T08:41:00;11.50;99.90
61255;DHT22;47128;47.530;8.584;2023-04-26T08:43:29;11.40;99.90
61255;DHT22;47128;47.530;8.584;2023-04-26T08:46:02;11.10;99.90
61255;DHT22;47128;47.530;8.584;2023-04-26T08:54:00;10.90;99.90
61255;DHT22;47128;47.530;8.584;2023-04-26T08:56:25;11.20;99.90
61255;DHT22;47128;47.530;8.584;2023-04-26T09:04:58;12.50;99.90
61255;DHT22;47128;47.530;8.584;2023-04-26T09:07:46;12.40;99.90
61255;DHT22;47128;47.530;8.584;2023-04-26T09:10:11;12.60;99.90
61255;DHT22;47128;47.530;8.584;2023-04-26T09:12:37;12.70;99.90
61255;DHT22;47128;47.530;8.584;2023-04-26T09:15:04;12.90;99.90
61255;DHT22;47128;47.530;8.584;2023-04-26T09:17:33;13.00;99.90
61255;DHT22;47128;47.530;8.584;2023-04-26T09:19:59;13.00;99.90
61255;DHT22;47128;47.530;8.584;2023-04-26T09:22:29;13.20;99.90
61255;DHT22;47128;47.530;8.584;2023-04-26T09:24:54;13.50;99.10
61255;DHT22;47128;47.530;8.584;2023-04-26T09:27:20;13.70;99.10
61255;DHT22;47128;47.530;8.584;2023-04-26T09:29:59;14.00;98.20
61255;DHT22;47128;47.530;8.584;2023-04-26T09:32:25;15.00;96.60
61255;DHT22;47128;47.530;8.584;2023-04-26T09:38:13;15.80;94.50
61255;DHT22;47128;47.530;8.584;2023-04-26T09:40:39;15.50;94.30
61255;DHT22;47128;47.530;8.584;2023-04-26T09:43:12;15.00;94.90
61255;DHT22;47128;47.530;8.584;2023-04-26T09:45:42;14.80;95.70
61255;DHT22;47128;47.530;8.584;2023-04-26T09:50:41;14.30;96.20
61255;DHT22;47128;47.530;8.584;2023-04-26T09:53:06;14.20;95.60
61255;DHT22;47128;47.530;8.584;2023-04-26T09:55:32;14.10;96.00
61255;DHT22;47128;47.530;8.584;2023-04-26T09:58:00;14.30;96.10
61255;DHT22;47128;47.530;8.584;2023-04-26T10:00:33;14.50;95.80
61255;DHT22;47128;47.530;8.584;2023-04-26T10:03:00;14.60;95.50
61255;DHT22;47128;47.530;8.584;2023-04-26T10:05:26;14.70;94.70
61255;DHT22;47128;47.530;8.584;2023-04-26T10:10:55;14.30;94.10
61255;DHT22;47128;47.530;8.584;2023-04-26T10:18:50;15.20;92.60
61255;DHT22;47128;47.530;8.584;2023-04-26T10:21:19;15.20;92.90
61255;DHT22;47128;47.530;8.584;2023-04-26T10:23:46;16.30;91.70
61255;DHT22;47128;47.530;8.584;2023-04-26T10:32:19;18.30;84.60
61255;DHT22;47128;47.530;8.584;2023-04-26T10:35:07;18.60;79.60
61255;DHT22;47128;47.530;8.584;2023-04-26T10:37:31;18.40;79.50
61255;DHT22;47128;47.530;8.584;2023-04-26T10:40:21;18.10;80.00
61255;DHT22;47128;47.530;8.584;2023-04-26T10:42:42;17.40;81.10
61255;DHT22;47128;47.530;8.584;2023-04-26T10:47:49;16.90;81.50
61255;DHT22;47128;47.530;8.584;2023-04-26T10:50:14;17.30;82.30
61255;DHT22;47128;47.530;8.584;2023-04-26T10:53:25;17.80;80.30
61255;DHT22;47128;47.530;8.584;2023-04-26T10:55:37;17.80;75.50
61255;DHT22;47128;47.530;8.584;2023-04-26T10:58:09;17.60;76.00
61255;DHT22;47128;47.530;8.584;2023-04-26T11:01:05;17.40;78.10
61255;DHT22;47128;47.530;8.584;2023-04-26T11:03:31;17.10;79.30
61255;DHT22;47128;47.530;8.584;2023-04-26T11:05:57;17.00;84.60
61255;DHT22;47128;47.530;8.584;2023-04-26T11:08:23;17.10;85.30
61255;DHT22;47128;47.530;8.584;2023-04-26T11:10:56;17.00;84.20
61255;DHT22;47128;47.530;8.584;2023-04-26T11:13:22;16.70;80.20
61255;DHT22;47128;47.530;8.584;2023-04-26T11:18:57;17.10;80.00
61255;DHT22;47128;47.530;8.584;2023-04-26T11:27:24;17.80;77.30
61255;DHT22;47128;47.530;8.584;2023-04-26T11:32:41;17.90;75.00
61255;DHT22;47128;47.530;8.584;2023-04-26T11:35:14;17.50;72.30
61255;DHT22;47128;47.530;8.584;2023-04-26T11:37:40;17.50;72.70
61255;DHT22;47128;47.530;8.584;2023-04-26T11:40:05;17.20;69.30
61255;DHT22;47128;47.530;8.584;2023-04-26T11:45:37;16.70;80.30
61255;DHT22;47128;47.530;8.584;2023-04-26T11:48:04;16.50;69.30
61255;DHT22;47128;47.530;8.584;2023-04-26T11:50:31;16.40;71.80
61255;DHT22;47128;47.530;8.584;2023-04-26T11:52:58;16.20;71.70
61255;DHT22;47128;47.530;8.584;2023-04-26T11:55:31;16.30;73.60
61255;DHT22;47128;47.530;8.584;2023-04-26T11:57:57;16.50;74.10
61255;DHT22;47128;47.530;8.584;2023-04-26T12:00:23;16.60;69.40
61255;DHT22;47128;47.530;8.584;2023-04-26T12:02:49;16.40;70.40
61255;DHT22;47128;47.530;8.584;2023-04-26T12:05:20;16.30;70.30
61255;DHT22;47128;47.530;8.584;2023-04-26T12:07:48;16.20;69.70
61255;DHT22;47128;47.530;8.584;2023-04-26T12:10:15;16.20;72.30
61255;DHT22;47128;47.530;8.584;2023-04-26T12:12:46;16.30;72.60
61255;DHT22;47128;47.530;8.584;2023-04-26T12:15:12;16.40;72.20
61255;DHT22;47128;47.530;8.584;2023-04-26T12:17:38;16.40;72.70
61255;DHT22;47128;47.530;8.584;2023-04-26T12:20:10;16.50;72.20
61255;DHT22;47128;47.530;8.584;2023-04-26T12:22:35;16.50;71.90
61255;DHT22;47128;47.530;8.584;2023-04-26T12:25:04;16.50;72.70
61255;DHT22;47128;47.530;8.584;2023-04-26T12:27:31;16.50;71.00
61255;DHT22;47128;47.530;8.584;2023-04-26T12:29:56;16.50;71.10
61255;DHT22;47128;47.530;8.584;2023-04-26T12:38:28;16.60;69.40
61255;DHT22;47128;47.530;8.584;2023-04-26T12:40:55;16.30;69.20
61255;DHT22;47128;47.530;8.584;2023-04-26T12:43:20;16.40;69.40
61255;DHT22;47128;47.530;8.584;2023-04-26T12:45:49;15.90;68.30
61255;DHT22;47128;47.530;8.584;2023-04-26T12:48:15;15.80;69.10
61255;DHT22;47128;47.530;8.584;2023-04-26T12:50:41;16.00;70.60
61255;DHT22;47128;47.530;8.584;2023-04-26T12:53:06;16.40;69.80
61255;DHT22;47128;47.530;8.584;2023-04-26T12:55:32;16.50;69.70
61255;DHT22;47128;47.530;8.584;2023-04-26T12:57:59;17.00;69.30
61255;DHT22;47128;47.530;8.584;2023-04-26T13:00:25;17.20;68.80
61255;DHT22;47128;47.530;8.584;2023-04-26T13:02:51;17.20;68.70
61255;DHT22;47128;47.530;8.584;2023-04-26T13:05:17;17.40;67.50
61255;DHT22;47128;47.530;8.584;2023-04-26T13:07:43;17.50;67.80
61255;DHT22;47128;47.530;8.584;2023-04-26T13:10:09;17.40;67.30
61255;DHT22;47128;47.530;8.584;2023-04-26T13:12:35;17.40;67.60
61255;DHT22;47128;47.530;8.584;2023-04-26T13:15:01;17.50;67.00
61255;DHT22;47128;47.530;8.584;2023-04-26T13:17:26;17.40;66.10
61255;DHT22;47128;47.530;8.584;2023-04-26T13:19:52;17.10;66.40
61255;DHT22;47128;47.530;8.584;2023-04-26T13:22:18;16.90;66.60
61255;DHT22;47128;47.530;8.584;2023-04-26T13:24:44;16.80;68.20
61255;DHT22;47128;47.530;8.584;2023-04-26T13:27:10;17.00;68.50
61255;DHT22;47128;47.530;8.584;2023-04-26T13:29:36;17.20;66.60
61255;DHT22;47128;47.530;8.584;2023-04-26T13:32:02;17.10;65.00
61255;DHT22;47128;47.530;8.584;2023-04-26T13:34:28;16.80;66.10
61255;DHT22;47128;47.530;8.584;2023-04-26T13:36:54;16.80;67.10
61255;DHT22;47128;47.530;8.584;2023-04-26T13:39:24;17.30;67.90
61255;DHT22;47128;47.530;8.584;2023-04-26T13:41:50;17.70;65.70
61255;DHT22;47128;47.530;8.584;2023-04-26T13:44:16;18.00;65.40
61255;DHT22;47128;47.530;8.584;2023-04-26T13:46:42;18.00;65.90
61255;DHT22;47128;47.530;8.584;2023-04-26T13:49:08;18.00;64.80
61255;DHT22;47128;47.530;8.584;2023-04-26T13:51:34;17.60;64.30
61255;DHT22;47128;47.530;8.584;2023-04-26T13:54:09;17.10;64.10
61255;DHT22;47128;47.530;8.584;2023-04-26T14:02:26;17.20;64.80
61255;DHT22;47128;47.530;8.584;2023-04-26T14:04:55;17.20;66.40
61255;DHT22;47128;47.530;8.584;2023-04-26T14:10:24;17.50;64.50
61255;DHT22;47128;47.530;8.584;2023-04-26T14:12:50;17.50;64.70
61255;DHT22;47128;47.530;8.584;2023-04-26T14:15:16;17.80;63.40
61255;DHT22;47128;47.530;8.584;2023-04-26T14:17:41;17.80;64.20
61255;DHT22;47128;47.530;8.584;2023-04-26T14:20:08;18.10;64.00
61255;DHT22;47128;47.530;8.584;2023-04-26T14:22:34;18.20;64.20
61255;DHT22;47128;47.530;8.584;2023-04-26T14:25:00;18.10;63.60
61255;DHT22;47128;47.530;8.584;2023-04-26T14:27:26;17.80;63.10
61255;DHT22;47128;47.530;8.584;2023-04-26T14:32:41;17.70;63.70
61255;DHT22;47128;47.530;8.584;2023-04-26T14:35:07;17.30;62.90
61255;DHT22;47128;47.530;8.584;2023-04-26T14:37:33;16.90;63.80
61255;DHT22;47128;47.530;8.584;2023-04-26T14:39:59;16.80;64.20
61255;DHT22;47128;47.530;8.584;2023-04-26T14:42:25;16.80;64.80
61255;DHT22;47128;47.530;8.584;2023-04-26T14:44:51;16.90;64.60
61255;DHT22;47128;47.530;8.584;2023-04-26T14:47:16;16.80;64.20
61255;DHT22;47128;47.530;8.584;2023-04-26T14:49:42;16.90;65.20
61255;DHT22;47128;47.530;8.584;2023-04-26T14:52:08;16.70;65.60
61255;DHT22;47128;47.530;8.584;2023-04-26T14:54:39;16.80;64.70
61255;DHT22;47128;47.530;8.584;2023-04-26T14:57:06;16.80;65.20
61255;DHT22;47128;47.530;8.584;2023-04-26T14:59:32;16.70;65.80
61255;DHT22;47128;47.530;8.584;2023-04-26T15:01:59;16.90;65.80
61255;DHT22;47128;47.530;8.584;2023-04-26T15:04:25;17.00;65.00
61255;DHT22;47128;47.530;8.584;2023-04-26T15:09:59;17.40;64.90
61255;DHT22;47128;47.530;8.584;2023-04-26T15:15:24;17.40;64.80
61255;DHT22;47128;47.530;8.584;2023-04-26T15:17:50;17.30;64.70
61255;DHT22;47128;47.530;8.584;2023-04-26T15:20:18;17.30;64.90
61255;DHT22;47128;47.530;8.584;2023-04-26T15:22:44;17.10;63.70
61255;DHT22;47128;47.530;8.584;2023-04-26T15:28:13;17.10;65.20
61255;DHT22;47128;47.530;8.584;2023-04-26T15:33:05;17.00;65.10
61255;DHT22;47128;47.530;8.584;2023-04-26T15:35:32;17.00;65.00
61255;DHT22;47128;47.530;8.584;2023-04-26T15:37:57;17.10;65.90
61255;DHT22;47128;47.530;8.584;2023-04-26T15:40:23;17.10;65.20
61255;DHT22;47128;47.530;8.584;2023-04-26T15:42:49;17.20;66.20
61255;DHT22;47128;47.530;8.584;2023-04-26T15:45:16;17.30;66.20
61255;DHT22;47128;47.530;8.584;2023-04-26T15:47:42;17.20;65.90
61255;DHT22;47128;47.530;8.584;2023-04-26T15:50:08;17.00;65.40
61255;DHT22;47128;47.530;8.584;2023-04-26T15:52:34;16.90;65.70
61255;DHT22;47128;47.530;8.584;2023-04-26T15:57:28;16.70;66.00
61255;DHT22;47128;47.530;8.584;2023-04-26T15:59:53;16.60;66.70
61255;DHT22;47128;47.530;8.584;2023-04-26T16:02:21;16.50;67.00
61255;DHT22;47128;47.530;8.584;2023-04-26T16:08:05;16.60;67.30
61255;DHT22;47128;47.530;8.584;2023-04-26T16:10:33;16.60;66.50
61255;DHT22;47128;47.530;8.584;2023-04-26T16:12:59;16.50;66.90
61255;DHT22;47128;47.530;8.584;2023-04-26T16:15:25;16.50;66.90
61255;DHT22;47128;47.530;8.584;2023-04-26T16:17:51;16.50;67.70
61255;DHT22;47128;47.530;8.584;2023-04-26T16:20:17;16.40;68.20
61255;DHT22;47128;47.530;8.584;2023-04-26T16:22:42;16.30;69.20
61255;DHT22;47128;47.530;8.584;2023-04-26T16:25:08;16.20;69.50
61255;DHT22;47128;47.530;8.584;2023-04-26T16:27:37;16.20;69.50
61255;DHT22;47128;47.530;8.584;2023-04-26T16:30:03;16.40;70.00
61255;DHT22;47128;47.530;8.584;2023-04-26T16:32:28;16.30;69.50
61255;DHT22;47128;47.530;8.584;2023-04-26T16:34:54;16.50;69.70
61255;DHT22;47128;47.530;8.584;2023-04-26T16:37:20;16.40;70.10
61255;DHT22;47128;47.530;8.584;2023-04-26T16:39:46;16.50;69.20
61255;DHT22;47128;47.530;8.584;2023-04-26T16:42:11;16.40;69.30
61255;DHT22;47128;47.530;8.584;2023-04-26T16:44:37;16.20;68.90
61255;DHT22;47128;47.530;8.584;2023-04-26T16:47:02;16.20;69.30
61255;DHT22;47128;47.530;8.584;2023-04-26T16:49:28;16.20;69.50
61255;DHT22;47128;47.530;8.584;2023-04-26T16:51:53;16.20;69.20
61255;DHT22;47128;47.530;8.584;2023-04-26T16:54:24;16.20;69.90
61255;DHT22;47128;47.530;8.584;2023-04-26T16:56:49;16.20;70.00
61255;DHT22;47128;47.530;8.584;2023-04-26T16:59:15;16.20;69.80
61255;DHT22;47128;47.530;8.584;2023-04-26T17:01:41;16.20;69.40
61255;DHT22;47128;47.530;8.584;2023-04-26T17:04:07;16.00;70.00
61255;DHT22;47128;47.530;8.584;2023-04-26T17:06:32;16.00;70.50
61255;DHT22;47128;47.530;8.584;2023-04-26T17:12:01;15.90;70.90
61255;DHT22;47128;47.530;8.584;2023-04-26T17:14:27;15.70;71.40
61255;DHT22;47128;47.530;8.584;2023-04-26T17:16:52;15.80;71.60
61255;DHT22;47128;47.530;8.584;2023-04-26T17:19:18;15.80;71.30
61255;DHT22;47128;47.530;8.584;2023-04-26T17:21:43;15.80;71.50
61255;DHT22;47128;47.530;8.584;2023-04-26T17:24:09;15.70;71.30
61255;DHT22;47128;47.530;8.584;2023-04-26T17:26:35;15.60;71.00
61255;DHT22;47128;47.530;8.584;2023-04-26T17:29:01;15.50;71.70
61255;DHT22;47128;47.530;8.584;2023-04-26T17:31:27;15.40;72.00
61255;DHT22;47128;47.530;8.584;2023-04-26T17:33:52;15.30;72.60
61255;DHT22;47128;47.530;8.584;2023-04-26T17:36:18;15.20;71.80
61255;DHT22;47128;47.530;8.584;2023-04-26T17:38:44;15.20;72.00
61255;DHT22;47128;47.530;8.584;2023-04-26T17:41:12;15.10;72.50
61255;DHT22;47128;47.530;8.584;2023-04-26T17:43:38;15.00;73.30
61255;DHT22;47128;47.530;8.584;2023-04-26T17:46:04;14.90;74.20
61255;DHT22;47128;47.530;8.584;2023-04-26T17:48:30;14.90;74.70
61255;DHT22;47128;47.530;8.584;2023-04-26T17:50:56;14.80;75.50
61255;DHT22;47128;47.530;8.584;2023-04-26T17:53:21;14.80;76.00
61255;DHT22;47128;47.530;8.584;2023-04-26T17:55:47;14.80;76.90